Weil, Louisiana
Current Conditions -  °F | °C
As of 2:53 PM on Thursday 27 Nov 2014 (Local Time) from KAEX Reporting Station
Clear Clear  
Wind Chill: 15°   Ceiling: Unl
Heat Index: 15°   Visibility: 10mi
Dew Point: -2°   Wind: 6mph
Humidity: 31%   Direction: 30°NNE
Pressure: 30.42"   Gusts: NA
Location:  31.2912°N, 92.5491°W
Report Text: KAEX 272053Z AUTO 03005KT 10SM CLR 15/M02 A3042 RMK AO2 SLP306 T01501022 56014
Loading
Personal Weather Stations






























Interactive Weather Map New forecast layout! Learn more

10-Day Weather Forecast

Advertisements
Track Severe Weather on mobile